Flight Track Log - Related Links

Times and Time Zones

All times are in EDT time to prevent confusion due to time zone crossing. See the N441R flight status page for this flight to view local times or setup timezone preferences in your user account.

Time Position Orientation Groundspeed Altitude Reporting Facility
EDT Latitude Longitude Course Direction KTS MPH feet Rate Location/Type
Sat 04:40:20 PM 32.4514 -90.9481 52° Northeast 218 251 5,800  Level Memphis Center
Sat 04:41:20 PM 32.4767 -90.9064 54° Northeast 192 221 7,800 1,900 Climbing Memphis Center
Sat 04:42:20 PM 32.5019 -90.8647 54° Northeast 172 198 9,600 1,750 Climbing Memphis Center
Sat 04:43:20 PM 32.5311 -90.8206 52° Northeast 167 192 11,300 1,750 Climbing Memphis Center
Sat 04:44:20 PM 32.5564 -90.7789 54° Northeast 162 186 13,100 1,750 Climbing Memphis Center
Sat 04:45:20 PM 32.5858 -90.7319 53° Northeast 162 186 14,800 1,700 Climbing Memphis Center
Sat 04:46:20 PM 32.6131 -90.6878 54° Northeast 162 186 16,500 1,650 Climbing Memphis Center
Sat 04:47:20 PM 32.6444 -90.6361 54° Northeast 175 201 18,100 1,450 Climbing Memphis Center
Sat 04:48:20 PM 32.6758 -90.5844 54° Northeast 175 201 19,400 1,300 Climbing Memphis Center
Sat 04:49:20 PM 32.7094 -90.5300 54° Northeast 186 214 20,700 1,250 Climbing Memphis Center
Sat 04:50:20 PM 32.7428 -90.4733 55° Northeast 191 220 21,900 1,200 Climbing Memphis Center
Sat 04:51:20 PM 32.7783 -90.4192 52° Northeast 196 226 23,100 1,100 Climbing Memphis Center
Sat 04:52:20 PM 32.8139 -90.3622 53° Northeast 201 231 24,100 1,000 Climbing Memphis Center
Sat 04:53:20 PM 32.8494 -90.3003 56° Northeast 206 237 25,100 1,000 Climbing Memphis Center
Sat 04:54:20 PM 32.8869 -90.2411 53° Northeast 211 243 26,100 850 Climbing Memphis Center
Sat 04:55:20 PM 32.9244 -90.1817 53° Northeast 216 249 26,800 450 Climbing Memphis Center
Sat 04:56:20 PM 32.9619 -90.1197 54° Northeast 232 267 27,000 100 Climbing Memphis Center
Sat 04:57:20 PM 33.0117 -90.0403 53° Northeast 250 288 27,000  Level Memphis Center
Sat 04:58:20 PM 33.0594 -89.9606 54° Northeast 271 312 27,000  Level Memphis Center
Sat 04:59:20 PM 33.1072 -89.8811 54° Northeast 284 327 27,000  Level Memphis Center
Sat 05:00:20 PM 33.1569 -89.7989 54° Northeast 294 338 27,000  Level Memphis Center
Sat 05:01:20 PM 33.2025 -89.7217 55° Northeast 294 338 27,000  Level Memphis Center
Sat 05:02:20 PM 33.2481 -89.6419 56° Northeast 289 333 27,000  Level Memphis Center
Sat 05:03:20 PM 33.2978 -89.5644 52° Northeast 289 333 27,000  Level Memphis Center
Sat 05:04:20 PM 33.3431 -89.4844 56° Northeast 289 333 27,000  Level Memphis Center
Sat 05:05:20 PM 33.3925 -89.4042 54° Northeast 289 333 27,000  Level Memphis Center
Sat 05:06:20 PM 33.4378 -89.3242 56° Northeast 289 333 27,000  Level Memphis Center
Sat 05:07:20 PM 33.4853 -89.2464 54° Northeast 289 333 27,000  Level Memphis Center
Sat 05:08:20 PM 33.5344 -89.1661 54° Northeast 289 333 27,000  Level Memphis Center
Sat 05:09:20 PM 33.5778 -89.0931 55° Northeast 289 333 27,000  Level Memphis Center
Sat 05:10:20 PM 33.6228 -89.0150 55° Northeast 289 333 27,000  Level Memphis Center
Sat 05:11:20 PM 33.6700 -88.9344 55° Northeast 289 333 27,000  Level Memphis Center
Sat 05:12:20 PM 33.7169 -88.8539 55° Northeast 289 333 27,000  Level Memphis Center
Sat 05:13:20 PM 33.7681 -88.7631 56° Northeast 294 338 27,000  Level Memphis Center
Sat 05:14:20 PM 33.8169 -88.6819 54° Northeast 294 338 27,000  Level Memphis Center
Sat 05:15:20 PM 33.8639 -88.6011 55° Northeast 294 338 27,000  Level Memphis Center
Sat 05:16:20 PM 33.9108 -88.5200 55° Northeast 294 338 27,000  Level Memphis Center
Sat 05:17:20 PM 33.9594 -88.4389 54° Northeast 294 338 27,000  Level Memphis Center
Sat 05:18:20 PM 34.0064 -88.3575 55° Northeast 294 338 27,000  Level Memphis Center
Sat 05:19:20 PM 34.0550 -88.2736 55° Northeast 294 338 27,000  Level Memphis Center
Sat 05:20:20 PM 34.1017 -88.1925 55° Northeast 294 338 27,000  Level Memphis Center
Sat 05:21:20 PM 34.1481 -88.1058 57° Northeast 301 346 27,000  Level Memphis Center
Sat 05:22:20 PM 34.1925 -88.0319 54° Northeast 306 352 27,000  Level Memphis Center
Sat 05:23:20 PM 34.2411 -87.9478 55° Northeast 300 345 27,000  Level Memphis Center
Sat 05:24:20 PM 34.2894 -87.8658 54° Northeast 288 331 27,000  Level Memphis Center
Sat 05:25:20 PM 34.3358 -87.7839 56° Northeast 294 338 27,000  Level Memphis Center
Sat 05:26:20 PM 34.3842 -87.6994 55° Northeast 299 344 27,000  Level Memphis Center
Sat 05:27:20 PM 34.4303 -87.6175 56° Northeast 293 337 27,000  Level Memphis Center
Sat 05:28:20 PM 34.4767 -87.5378 55° Northeast 293 337 27,000  Level Memphis Center
Sat 05:29:20 PM 34.5286 -87.4453 56° Northeast 304 350 27,000  Level Memphis Center
Sat 05:30:42 PM 34.5869 -87.3389 56° Northeast 290 334 27,000  Level Atlanta Center
Sat 05:31:42 PM 34.6350 -87.2525 56° Northeast 298 343 27,000  Level Atlanta Center
Sat 05:32:42 PM 34.6856 -87.1636 55° Northeast 298 343 27,000  Level Atlanta Center
Sat 05:33:42 PM 34.7314 -87.0792 57° Northeast 298 343 27,000  Level Atlanta Center
Sat 05:34:42 PM 34.7814 -86.9950 54° Northeast 298 343 27,000  Level Atlanta Center
Sat 05:35:42 PM 34.8272 -86.9108 56° Northeast 298 343 27,000  Level Atlanta Center
Sat 05:36:42 PM 34.8731 -86.8261 57° Northeast 298 343 27,000  Level Atlanta Center
Sat 05:37:42 PM 34.9208 -86.7417 55° Northeast 298 343 27,000  Level Atlanta Center
Sat 05:38:42 PM 34.9664 -86.6569 57° Northeast 298 343 27,000  Level Atlanta Center
Sat 05:39:42 PM 35.0142 -86.5722 55° Northeast 298 343 27,000  Level Atlanta Center
Sat 05:40:42 PM 35.0617 -86.4900 55° Northeast 298 343 27,000  Level Atlanta Center
Sat 05:41:42 PM 35.1072 -86.4050 57° Northeast 298 343 27,000  Level Atlanta Center
Sat 05:42:42 PM 35.1547 -86.3200 56° Northeast 298 343 27,000  Level Atlanta Center
Sat 05:43:42 PM 35.1917 -86.2447 59° Northeast 298 343 27,000  Level Atlanta Center
Sat 05:44:42 PM 35.2389 -86.1594 56° Northeast 304 350 27,000  Level Atlanta Center
Sat 05:45:42 PM 35.2864 -86.0717 56° Northeast 303 349 27,000  Level Atlanta Center
Sat 05:47:06 PM 35.3572 -85.9411 56° Northeast 308 354 27,000  Level Atlanta Center
Sat 05:48:06 PM 35.4044 -85.8531 57° Northeast 308 354 27,000  Level Atlanta Center
Sat 05:49:06 PM 35.4517 -85.7672 56° Northeast 301 346 27,000  Level Atlanta Center
Sat 05:50:06 PM 35.4986 -85.6842 55° Northeast 301 346 27,000  Level Atlanta Center
Sat 05:51:06 PM 35.5458 -85.5958 57° Northeast 301 346 27,000  Level Atlanta Center
Sat 05:52:06 PM 35.5928 -85.5072 57° Northeast 301 346 27,000  Level Atlanta Center
Sat 05:53:06 PM 35.6397 -85.4186 57° Northeast 301 346 27,000  Level Atlanta Center
Sat 05:54:06 PM 35.6864 -85.3300 57° Northeast 301 346 27,000  Level Atlanta Center
Sat 05:55:06 PM 35.7311 -85.2411 58° Northeast 301 346 27,000  Level Atlanta Center
Sat 05:56:06 PM 35.7778 -85.1547 56° Northeast 301 346 27,000  Level Atlanta Center
Sat 05:57:06 PM 35.8139 -85.0886 56° Northeast 301 346 27,000  Level Atlanta Center
Sat 05:58:06 PM 35.8647 -84.9894 58° Northeast 301 346 27,000  Level Atlanta Center
Sat 05:59:06 PM 35.9178 -84.8875 57° Northeast 315 362 27,000  Level Atlanta Center
Sat 06:00:06 PM 35.9619 -84.8058 56° Northeast 322 371 27,000  Level Atlanta Center
Sat 06:01:06 PM 36.0083 -84.7164 57° Northeast 311 358 27,000  Level Atlanta Center
Sat 06:02:06 PM 36.0547 -84.6294 57° Northeast 306 352 27,000  Level Atlanta Center
Sat 06:03:06 PM 36.0989 -84.5397 59° Northeast 306 352 27,000  Level Atlanta Center
Sat 06:04:06 PM 36.1472 -84.4503 56° Northeast 306 352 27,000  Level Atlanta Center
Sat 06:05:06 PM 36.1975 -84.3525 57° Northeast 301 346 27,000  Level Atlanta Center
Sat 06:06:06 PM 36.2436 -84.2600 58° Northeast 301 346 27,000  Level Atlanta Center
Sat 06:07:06 PM 36.2897 -84.1700 58° Northeast 301 346 27,000  Level Atlanta Center
Sat 06:08:06 PM 36.3378 -84.0825 56° Northeast 301 346 27,000  Level Atlanta Center
Sat 06:09:06 PM 36.3836 -83.9897 58° Northeast 301 346 27,000  Level Atlanta Center
Sat 06:10:06 PM 36.4294 -83.8994 58° Northeast 301 346 27,000 -50 Level Atlanta Center
Sat 06:11:06 PM 36.4753 -83.8064 58° Northeast 306 352 26,900 -400 Descending Atlanta Center
Sat 06:12:06 PM 36.5250 -83.7106 57° Northeast 313 360 26,200 -689 Descending Atlanta Center
Sat 06:13:34 PM 36.5944 -83.5758 57° Northeast 345 397 25,200 -483 Descending Indianapolis Center
Sat 06:14:35 PM 36.6536 -83.4592 58° Northeast 341 392 25,000 -98 Descending Indianapolis Center
Sat 06:15:37 PM 36.7008 -83.3636 58° Northeast 327 376 25,000  Level Indianapolis Center
Sat 06:16:38 PM 36.7475 -83.2706 58° Northeast 318 366 25,000  Level Indianapolis Center
Sat 06:17:40 PM 36.7947 -83.1769 58° Northeast 318 366 25,000  Level Indianapolis Center
Sat 06:18:41 PM 36.8406 -83.0836 58° Northeast 316 364 25,000  Level Indianapolis Center
Sat 06:19:43 PM 36.8869 -82.9908 58° Northeast 314 361 25,000  Level Indianapolis Center
Sat 06:20:44 PM 36.9372 -82.8975 56° Northeast 314 361 25,000  Level Indianapolis Center
Sat 06:21:46 PM 36.9825 -82.7967 61° Northeast 316 364 25,000 -341 Level Indianapolis Center
Sat 06:22:47 PM 37.0294 -82.7022 58° Northeast 318 366 24,300 -829 Descending Indianapolis Center
Sat 06:23:49 PM 37.0775 -82.6031 59° Northeast 328 377 23,300 -1,122 Descending Indianapolis Center
Sat 06:24:50 PM 37.1261 -82.5025 59° Northeast 334 384 22,000 -1,317 Descending Indianapolis Center
Sat 06:25:52 PM 37.1758 -82.4006 59° Northeast 340 391 20,600 -1,512 Descending Indianapolis Center
Sat 06:26:53 PM 37.2319 -82.2861 58° Northeast 333 383 18,900 -1,475 Descending Indianapolis Center
Sat 06:27:54 PM 37.2783 -82.1900 59° Northeast 324 373 17,600 -1,317 Descending Indianapolis Center
Sat 06:28:56 PM 37.3256 -82.0969 57° Northeast 315 362 16,200 -1,366 Descending Indianapolis Center
Sat 06:29:57 PM 37.3825 -82.0161 48° Northeast 308 354 14,800 -1,366 Descending Indianapolis Center
Sat 06:30:59 PM 37.4417 -81.9397 46° Northeast 304 350 13,400 -1,268 Descending Indianapolis Center
Sat 06:32:00 PM 37.4967 -81.8656 47° Northeast 292 336 12,200 -1,073 Descending Indianapolis Center
Sat 06:33:02 PM 37.5492 -81.7967 46° Northeast 276 318 11,200 -919 Descending Indianapolis Center
Sat 06:34:04 PM 37.5992 -81.7264 48° Northeast 269 310 10,300 -927 Descending Indianapolis Center
Sat 06:35:05 PM 37.6631 -81.6453 45° Northeast 274 315 9,300 -927 Descending Indianapolis Center
Sat 06:36:07 PM 37.7206 -81.5872 39° Northeast 264 304 8,400 -878 Descending Indianapolis Center
Sat 06:37:08 PM 37.7758 -81.5283 40° Northeast 259 298 7,500 -829 Descending Indianapolis Center
Sat 06:38:10 PM 37.8331 -81.4664 41° Northeast 258 297 6,700 -683 Descending Indianapolis Center
Sat 06:39:11 PM 37.8872 -81.4081 40° Northeast 257 296 6,100 -390 Descending Indianapolis Center
Sat 06:40:13 PM 37.9389 -81.3536 40° Northeast 246 283 5,900 -97 Descending Indianapolis Center
Sat 06:41:15 PM 37.9864 -81.3017 41° Northeast 230 265 5,900 -244 Level Indianapolis Center
Sat 06:42:16 PM 38.0331 -81.2500 41° Northeast 224 258 5,400 -439 Descending Indianapolis Center
Sat 06:43:18 PM 38.0314 -81.1667 91° East 238 274 5,000 -244 Descending Indianapolis Center
Sat 06:44:19 PM 38.0172 -81.0994 105° East 210 242 4,900 -49 Descending Indianapolis Center
Sat 06:45:21 PM 37.9656 -81.0861 168° South 161 185 4,900  Level Indianapolis Center
Sat 06:46:22 PM 37.9222 -81.0917 186° South 159 183 4,900  Level Indianapolis Center

Login

Don't have an account? Register now (free) for customized features, flight alerts, and more!